Time;durP1;ratioP1;P1;durP2;ratioP2;P2;SDS_P1;SDS_P2;PMS_P1;PMS_P2;Temp;Humidity;BMP_temperature;BMP_pressure;BME280_temperature;BME280_humidity;BME280_pressure;Samples;Min_cycle;Max_cycle;Signal;HPM_P1;HPM_P2
2023/10/02 00:00:39;;;;;;;7.68;4.63;;;;;;;;;;5054407;28;20115;-58
2023/10/02 00:03:05;;;;;;;9.35;5.43;;;;;;;;;;5054513;28;20035;-58
2023/10/02 00:05:40;;;;;;;8.55;6.03;;;;;;;;;;5054288;28;20059;-58
2023/10/02 00:08:07;;;;;;;8.75;4.82;;;;;;;;;;5054961;28;20037;-58
2023/10/02 00:10:33;;;;;;;9.07;5.03;;;;;;;;;;5054863;28;20078;-58
2023/10/02 00:12:59;;;;;;;8.55;4.45;;;;;;;;;;5054402;28;20021;-58
2023/10/02 00:15:25;;;;;;;11.43;5.63;;;;;;;;;;5054163;28;20147;-58
2023/10/02 00:17:51;;;;;;;8.85;5.53;;;;;;;;;;5054026;28;20491;-58
2023/10/02 00:20:26;;;;;;;6.95;4.65;;;;;;;;;;5053748;28;20032;-58
2023/10/02 00:22:53;;;;;;;8.45;4.93;;;;;;;;;;5054818;28;20021;-58
2023/10/02 00:25:22;;;;;;;8.30;5.22;;;;;;;;;;5053913;28;20025;-58
2023/10/02 00:27:50;;;;;;;11.13;4.47;;;;;;;;;;5053793;28;20486;-58
2023/10/02 00:30:17;;;;;;;7.20;4.82;;;;;;;;;;5054469;28;20025;-58
2023/10/02 00:32:46;;;;;;;8.60;4.82;;;;;;;;;;5053855;28;20025;-58
2023/10/02 00:35:12;;;;;;;5.70;4.18;;;;;;;;;;5053770;28;20053;-58
2023/10/02 00:37:47;;;;;;;6.75;4.72;;;;;;;;;;5053743;28;20079;-58
2023/10/02 00:40:22;;;;;;;8.38;4.32;;;;;;;;;;5053991;28;20459;-58
2023/10/02 00:42:55;;;;;;;7.35;4.57;;;;;;;;;;5054313;28;20393;-58
2023/10/02 00:45:21;;;;;;;8.20;4.53;;;;;;;;;;5054168;28;20025;-58
2023/10/02 00:47:48;;;;;;;8.68;5.32;;;;;;;;;;5053523;28;20021;-58
2023/10/02 00:50:18;;;;;;;9.07;5.25;;;;;;;;;;5054346;28;20159;-58
2023/10/02 00:52:47;;;;;;;9.50;5.10;;;;;;;;;;5053553;28;20021;-58
2023/10/02 00:55:15;;;;;;;8.45;5.68;;;;;;;;;;5053386;28;20256;-58
2023/10/02 00:57:41;;;;;;;7.57;4.70;;;;;;;;;;5054266;28;20025;-58
2023/10/02 01:00:17;;;;;;;9.90;5.03;;;;;;;;;;5052758;28;20021;-58
2023/10/02 01:02:59;;;;;;;7.20;4.70;;;;;;;;;;5054283;28;20029;-58
2023/10/02 01:05:30;;;;;;;7.40;5.28;;;;;;;;;;5053446;28;20128;-58
2023/10/02 01:07:56;;;;;;;;;;;;;;;;;;5054031;28;20479;-58
2023/10/02 01:10:23;;;;;;;11.07;6.22;;;;;;;;;;5053996;28;19998;-58
2023/10/02 01:12:50;;;;;;;10.30;5.50;;;;;;;;;;5053323;28;20021;-58
2023/10/02 01:15:19;;;;;;;9.05;6.20;;;;;;;;;;5053364;28;20021;-58
2023/10/02 01:17:47;;;;;;;9.55;5.53;;;;;;;;;;5053236;28;20104;-58
2023/10/02 01:23:16;;;;;;;7.68;5.05;;;;;;;;;;5048275;28;20395;-58
2023/10/02 01:25:46;;;;;;;6.75;4.72;;;;;;;;;;5053786;28;20036;-58
2023/10/02 01:28:15;;;;;;;12.13;6.32;;;;;;;;;;5053197;28;20211;-58
2023/10/02 01:30:42;;;;;;;7.55;4.20;;;;;;;;;;5053823;28;20374;-58
2023/10/02 01:33:17;;;;;;;7.50;4.47;;;;;;;;;;5053694;28;20025;-58
2023/10/02 01:35:46;;;;;;;7.15;4.47;;;;;;;;;;5053305;28;20140;-58
2023/10/02 01:38:13;;;;;;;6.57;4.80;;;;;;;;;;5053415;28;20375;-58
2023/10/02 01:40:43;;;;;;;8.43;5.20;;;;;;;;;;5053699;28;20021;-58
2023/10/02 01:43:12;;;;;;;10.15;4.78;;;;;;;;;;5053143;28;20060;-58
2023/10/02 01:45:45;;;;;;;6.85;4.72;;;;;;;;;;5053082;28;20029;-58
2023/10/02 01:48:13;;;;;;;9.23;6.05;;;;;;;;;;5053014;28;20033;-58
2023/10/02 01:50:39;;;;;;;7.20;4.65;;;;;;;;;;5053047;28;20111;-58
2023/10/02 01:53:05;;;;;;;10.18;5.05;;;;;;;;;;5052985;28;20025;-58
2023/10/02 01:55:35;;;;;;;7.38;4.90;;;;;;;;;;5053221;28;20024;-58
2023/10/02 01:58:16;;;;;;;7.45;5.18;;;;;;;;;;5053485;28;20036;-58
2023/10/02 02:00:42;;;;;;;7.68;4.78;;;;;;;;;;5053753;28;20021;-58
2023/10/02 02:03:14;;;;;;;10.55;5.07;;;;;;;;;;5052911;28;20048;-58
2023/10/02 02:05:44;;;;;;;12.25;5.93;;;;;;;;;;5053157;28;20047;-58
2023/10/02 02:08:21;;;;;;;10.43;6.07;;;;;;;;;;5052791;28;20376;-58
2023/10/02 02:10:51;;;;;;;8.35;5.97;;;;;;;;;;5055247;28;20367;-58
2023/10/02 02:13:17;;;;;;;8.05;5.18;;;;;;;;;;5057504;28;20017;-58
2023/10/02 02:15:47;;;;;;;8.73;5.45;;;;;;;;;;5057189;28;20067;-58
2023/10/02 02:18:16;;;;;;;5.72;3.97;;;;;;;;;;5056367;28;20036;-58
2023/10/02 02:20:57;;;;;;;8.48;5.10;;;;;;;;;;5056366;28;20021;-58
2023/10/02 02:23:24;;;;;;;7.63;4.57;;;;;;;;;;5056823;28;20083;-58
2023/10/02 02:25:50;;;;;;;9.07;5.20;;;;;;;;;;5056980;28;20047;-58
2023/10/02 02:28:17;;;;;;;8.20;5.05;;;;;;;;;;5056125;28;20037;-58
2023/10/02 02:30:43;;;;;;;10.02;5.35;;;;;;;;;;5056058;28;20506;-58
2023/10/02 02:33:12;;;;;;;8.25;5.40;;;;;;;;;;5056061;28;20047;-58
2023/10/02 02:35:39;;;;;;;12.15;5.35;;;;;;;;;;5056372;28;20459;-58
2023/10/02 02:38:14;;;;;;;8.73;4.95;;;;;;;;;;5056019;28;20033;-58
2023/10/02 02:40:40;;;;;;;9.25;4.93;;;;;;;;;;5056533;28;20025;-58
2023/10/02 02:43:19;;;;;;;9.00;5.72;;;;;;;;;;5056437;28;20337;-58
2023/10/02 02:45:45;;;;;;;8.63;5.00;;;;;;;;;;5056396;28;20462;-58
2023/10/02 02:48:12;;;;;;;7.20;5.00;;;;;;;;;;5056232;28;20044;-58
2023/10/02 02:50:40;;;;;;;8.95;5.45;;;;;;;;;;5056349;28;20021;-58
2023/10/02 02:53:22;;;;;;;9.43;4.95;;;;;;;;;;5055701;28;20029;-58
2023/10/02 02:56:22;;;;;;;10.30;5.28;;;;;;;;;;5055644;28;20078;-58
2023/10/02 02:58:49;;;;;;;7.13;4.82;;;;;;;;;;5055644;28;20108;-58
2023/10/02 03:01:21;;;;;;;12.30;5.03;;;;;;;;;;5056150;28;20033;-58
2023/10/02 03:03:48;;;;;;;9.82;4.90;;;;;;;;;;5056105;28;20070;-58
2023/10/02 03:06:14;;;;;;;8.95;5.65;;;;;;;;;;5055518;28;20108;-58
2023/10/02 03:08:41;;;;;;;10.27;4.65;;;;;;;;;;5055380;28;20032;-58
2023/10/02 03:11:07;;;;;;;9.95;5.00;;;;;;;;;;5055863;28;20033;-58
2023/10/02 03:13:36;;;;;;;9.95;5.70;;;;;;;;;;5055847;28;20025;-58
2023/10/02 03:16:12;;;;;;;8.45;5.32;;;;;;;;;;5055507;28;20036;-58
2023/10/02 03:18:43;;;;;;;7.60;4.72;;;;;;;;;;5055570;28;20041;-58
2023/10/02 03:21:14;;;;;;;6.95;4.90;;;;;;;;;;5055414;28;20477;-58
2023/10/02 03:23:42;;;;;;;9.10;5.53;;;;;;;;;;5055395;28;20025;-58
2023/10/02 03:29:04;;;;;;;7.53;4.38;;;;;;;;;;5055391;28;20037;-58
2023/10/02 03:31:37;;;;;;;8.05;4.80;;;;;;;;;;5055901;28;20033;-58
2023/10/02 03:34:24;;;;;;;8.25;5.40;;;;;;;;;;5055396;28;20041;-58
2023/10/02 03:36:49;;;;;;;7.75;4.80;;;;;;;;;;5054835;28;20073;-58
2023/10/02 03:39:51;;;;;;;7.15;4.38;;;;;;;;;;5055211;28;20183;-58
2023/10/02 03:42:12;;;;;;;12.38;5.57;;;;;;;;;;5055733;28;20045;-58
2023/10/02 03:44:39;;;;;;;9.00;5.18;;;;;;;;;;5055327;28;20418;-58
2023/10/02 03:47:05;;;;;;;11.93;5.47;;;;;;;;;;5054755;28;20029;-58
2023/10/02 03:49:34;;;;;;;6.78;4.88;;;;;;;;;;5054666;28;20040;-58
2023/10/02 03:52:00;;;;;;;8.38;4.63;;;;;;;;;;5054590;28;20527;-58
2023/10/02 03:54:29;;;;;;;12.52;5.45;;;;;;;;;;5054915;28;20048;-58
2023/10/02 03:56:55;;;;;;;8.43;4.97;;;;;;;;;;5054389;28;20060;-58
2023/10/02 03:59:27;;;;;;;8.68;5.68;;;;;;;;;;5055374;28;20095;-58
2023/10/02 04:02:24;;;;;;;9.00;5.80;;;;;;;;;;5055019;28;20090;-58
2023/10/02 04:04:42;;;;;;;8.23;5.40;;;;;;;;;;5054293;28;20033;-58
2023/10/02 04:07:08;;;;;;;10.00;5.40;;;;;;;;;;5054380;28;20025;-58
2023/10/02 04:09:36;;;;;;;10.00;5.55;;;;;;;;;;5054333;28;20029;-58
2023/10/02 04:12:04;;;;;;;10.02;5.97;;;;;;;;;;5054500;28;20127;-58
2023/10/02 04:14:38;;;;;;;8.02;5.22;;;;;;;;;;5054265;28;20112;-58
2023/10/02 04:19:52;;;;;;;10.48;4.90;;;;;;;;;;5054554;28;20034;-58
2023/10/02 04:22:25;;;;;;;9.32;5.22;;;;;;;;;;5054787;28;20025;-58
2023/10/02 04:24:53;;;;;;;10.07;5.65;;;;;;;;;;5054448;28;20028;-58
2023/10/02 04:27:27;;;;;;;6.90;4.57;;;;;;;;;;5054473;28;20032;-58
2023/10/02 04:32:34;;;;;;;7.03;4.82;;;;;;;;;;5054041;28;20459;-58
2023/10/02 04:35:03;;;;;;;8.25;4.95;;;;;;;;;;5052914;28;20098;-58
2023/10/02 04:37:36;;;;;;;12.07;5.93;;;;;;;;;;5054688;28;20040;-58
2023/10/02 04:40:15;;;;;;;10.70;5.55;;;;;;;;;;5053952;28;20111;-58
2023/10/02 04:43:14;;;;;;;10.85;5.20;;;;;;;;;;5053876;28;20021;-58
2023/10/02 04:45:40;;;;;;;9.53;5.53;;;;;;;;;;5054381;28;20028;-58
2023/10/02 04:48:09;;;;;;;10.07;5.53;;;;;;;;;;5053872;28;20099;-58
2023/10/02 04:50:35;;;;;;;8.82;5.15;;;;;;;;;;5053706;28;20025;-58
2023/10/02 04:53:19;;;;;;;9.77;5.53;;;;;;;;;;5053638;28;20033;-58
2023/10/02 04:55:48;;;;;;;8.52;5.68;;;;;;;;;;5054099;28;20029;-58
2023/10/02 04:58:18;;;;;;;9.48;5.95;;;;;;;;;;5053416;28;20052;-58
2023/10/02 05:03:36;;;;;;;13.25;5.68;;;;;;;;;;5053860;28;20029;-58
2023/10/02 05:06:03;;;;;;;6.75;5.07;;;;;;;;;;5053459;28;20356;-58
2023/10/02 05:08:34;;;;;;;10.18;5.57;;;;;;;;;;5053953;28;20064;-58
2023/10/02 05:11:07;;;;;;;9.52;6.03;;;;;;;;;;5053690;28;20025;-58
2023/10/02 05:16:27;;;;;;;14.10;5.70;;;;;;;;;;5053692;28;20036;-58
2023/10/02 05:18:53;;;;;;;8.48;5.57;;;;;;;;;;5054199;28;20083;-58
2023/10/02 05:21:19;;;;;;;7.38;5.03;;;;;;;;;;5053898;28;20483;-58
2023/10/02 05:24:00;;;;;;;7.80;5.25;;;;;;;;;;5053327;28;20029;-58
2023/10/02 05:26:44;;;;;;;8.57;5.75;;;;;;;;;;5053828;28;20070;-58
2023/10/02 05:29:17;;;;;;;8.75;6.03;;;;;;;;;;5053779;28;20063;-58
2023/10/02 05:31:43;;;;;;;7.95;5.15;;;;;;;;;;5054100;28;20070;-58
2023/10/02 05:34:13;;;;;;;7.85;5.45;;;;;;;;;;5053819;28;20071;-58
2023/10/02 05:39:28;;;;;;;9.38;5.18;;;;;;;;;;5052980;28;20083;-58
2023/10/02 05:42:05;;;;;;;10.18;6.13;;;;;;;;;;5053661;28;20033;-58
2023/10/02 05:44:31;;;;;;;11.38;6.20;;;;;;;;;;5054011;28;20028;-58
2023/10/02 05:47:07;;;;;;;6.88;5.35;;;;;;;;;;5056706;28;20017;-58
2023/10/02 05:49:33;;;;;;;10.00;7.03;;;;;;;;;;5057463;28;20033;-58
2023/10/02 05:52:02;;;;;;;7.65;5.65;;;;;;;;;;5056976;28;20040;-58
2023/10/02 05:54:35;;;;;;;10.57;6.22;;;;;;;;;;5057439;28;20028;-58
2023/10/02 05:57:14;;;;;;;10.23;5.75;;;;;;;;;;5057076;28;20074;-58
2023/10/02 05:59:44;;;;;;;11.23;5.88;;;;;;;;;;5056632;28;20048;-58
2023/10/02 06:02:14;;;;;;;8.70;6.55;;;;;;;;;;5056853;28;20020;-58
2023/10/02 06:04:47;;;;;;;9.52;5.85;;;;;;;;;;5056750;28;20033;-58
2023/10/02 06:07:19;;;;;;;9.52;6.32;;;;;;;;;;5057230;28;20025;-57
2023/10/02 06:09:45;;;;;;;10.80;5.15;;;;;;;;;;5057401;28;20040;-58
2023/10/02 06:12:11;;;;;;;8.85;5.43;;;;;;;;;;5057163;28;20051;-58
2023/10/02 06:14:42;;;;;;;10.95;6.68;;;;;;;;;;5057143;28;20036;-58
2023/10/02 06:17:11;;;;;;;;;;;;;;;;;;5057488;28;20514;-58
2023/10/02 06:19:42;;;;;;;10.80;5.88;;;;;;;;;;5057195;28;19904;-58
2023/10/02 06:22:09;;;;;;;11.60;5.78;;;;;;;;;;5056401;28;20029;-58
2023/10/02 06:24:35;;;;;;;11.13;6.47;;;;;;;;;;5056171;28;20107;-58
2023/10/02 06:27:07;;;;;;;8.07;6.57;;;;;;;;;;5056236;28;20517;-58
2023/10/02 06:29:35;;;;;;;7.90;5.55;;;;;;;;;;5056223;28;20036;-58
2023/10/02 06:32:11;;;;;;;8.52;5.97;;;;;;;;;;5055884;28;20521;-58
2023/10/02 06:34:38;;;;;;;10.82;6.78;;;;;;;;;;5055930;28;20094;-58
2023/10/02 06:37:11;;;;;;;10.10;5.38;;;;;;;;;;5056090;28;20471;-58
2023/10/02 06:39:38;;;;;;;12.10;5.82;;;;;;;;;;5056608;28;20028;-58
2023/10/02 06:42:15;;;;;;;9.57;6.28;;;;;;;;;;5056042;28;20032;-58
2023/10/02 06:44:53;;;;;;;11.35;7.43;;;;;;;;;;5056265;28;20029;-57
2023/10/02 06:47:23;;;;;;;10.43;6.68;;;;;;;;;;5056401;28;20408;-58
2023/10/02 06:49:52;;;;;;;11.15;6.80;;;;;;;;;;5056308;28;20116;-57
2023/10/02 06:52:19;;;;;;;11.23;6.78;;;;;;;;;;5056383;28;20207;-57
2023/10/02 06:54:49;;;;;;;11.98;7.53;;;;;;;;;;5056331;28;20355;-58
2023/10/02 06:57:17;;;;;;;9.55;6.72;;;;;;;;;;5055145;28;20336;-58
2023/10/02 06:59:51;;;;;;;10.93;6.35;;;;;;;;;;5056312;28;20043;-58
2023/10/02 07:02:18;;;;;;;11.02;6.45;;;;;;;;;;5056005;28;20032;-58
2023/10/02 07:04:44;;;;;;;11.30;7.45;;;;;;;;;;5056097;28;20036;-58
2023/10/02 07:07:12;;;;;;;8.10;5.32;;;;;;;;;;5055881;28;20370;-58
2023/10/02 07:09:39;;;;;;;9.95;6.75;;;;;;;;;;5056036;28;20033;-58
2023/10/02 07:12:09;;;;;;;6.60;5.65;;;;;;;;;;5055444;28;20108;-58
2023/10/02 07:14:38;;;;;;;11.27;6.22;;;;;;;;;;5055991;28;20075;-58
2023/10/02 07:17:16;;;;;;;8.35;5.43;;;;;;;;;;5055278;28;20029;-58
2023/10/02 07:19:49;;;;;;;13.02;6.85;;;;;;;;;;5055853;28;20032;-58
2023/10/02 07:22:18;;;;;;;9.95;6.22;;;;;;;;;;5054843;28;20029;-58
2023/10/02 07:24:46;;;;;;;7.10;5.57;;;;;;;;;;5055407;28;20029;-58
2023/10/02 07:27:23;;;;;;;12.25;7.47;;;;;;;;;;5055148;28;20025;-58
2023/10/02 07:29:51;;;;;;;9.25;5.32;;;;;;;;;;5055697;28;20044;-58
2023/10/02 07:32:18;;;;;;;12.27;6.85;;;;;;;;;;5055240;28;20025;-58
2023/10/02 07:34:45;;;;;;;10.07;6.22;;;;;;;;;;5054896;28;20056;-58
2023/10/02 07:37:13;;;;;;;8.07;5.95;;;;;;;;;;5055198;28;20056;-58
2023/10/02 07:39:39;;;;;;;7.78;4.97;;;;;;;;;;5055784;28;20029;-58
2023/10/02 07:42:06;;;;;;;9.85;6.05;;;;;;;;;;5055385;28;20355;-58
2023/10/02 07:44:38;;;;;;;13.00;6.75;;;;;;;;;;5054921;28;20037;-58
2023/10/02 07:47:16;;;;;;;13.40;6.47;;;;;;;;;;5055407;28;20017;-58
2023/10/02 07:49:46;;;;;;;10.35;6.15;;;;;;;;;;5055212;28;20427;-58
2023/10/02 07:52:26;;;;;;;10.35;6.93;;;;;;;;;;5055171;28;20041;-58
2023/10/02 07:54:58;;;;;;;10.82;6.93;;;;;;;;;;5055131;28;20033;-58
2023/10/02 07:57:27;;;;;;;9.65;6.35;;;;;;;;;;5055446;28;20056;-58
2023/10/02 07:59:53;;;;;;;13.23;7.32;;;;;;;;;;5055173;28;20035;-58
2023/10/02 08:02:23;;;;;;;10.73;6.05;;;;;;;;;;5054499;28;20446;-58
2023/10/02 08:04:51;;;;;;;10.48;6.63;;;;;;;;;;5055008;28;20032;-58
2023/10/02 08:07:17;;;;;;;13.13;7.78;;;;;;;;;;5054383;28;20021;-58
2023/10/02 08:09:47;;;;;;;10.73;7.13;;;;;;;;;;5054925;28;20087;-58
2023/10/02 08:12:29;;;;;;;9.98;6.43;;;;;;;;;;5054900;28;20379;-58
2023/10/02 08:14:57;;;;;;;10.32;6.78;;;;;;;;;;5055155;28;20037;-58
2023/10/02 08:20:19;;;;;;;14.82;6.18;;;;;;;;;;5054620;28;20040;-58
2023/10/02 08:22:46;;;;;;;9.13;6.22;;;;;;;;;;5054189;28;20029;-58
2023/10/02 08:25:13;;;;;;;9.48;5.95;;;;;;;;;;5052716;28;20116;-58
2023/10/02 08:27:42;;;;;;;10.18;7.00;;;;;;;;;;5054717;28;20071;-58
2023/10/02 08:32:53;;;;;;;10.75;6.40;;;;;;;;;;5053730;28;20028;-58
2023/10/02 08:35:19;;;;;;;10.15;6.45;;;;;;;;;;5053922;28;20053;-58
2023/10/02 08:37:45;;;;;;;9.60;6.97;;;;;;;;;;5054417;28;20031;-58
2023/10/02 08:40:14;;;;;;;10.85;6.10;;;;;;;;;;5053931;28;20036;-58
2023/10/02 08:42:46;;;;;;;8.23;6.15;;;;;;;;;;5053789;28;20036;-58
2023/10/02 08:45:20;;;;;;;9.90;6.60;;;;;;;;;;5053753;28;20028;-58
2023/10/02 08:47:47;;;;;;;10.85;6.72;;;;;;;;;;5054452;28;20029;-58
2023/10/02 08:50:15;;;;;;;8.70;6.43;;;;;;;;;;5053745;28;20537;-58
2023/10/02 08:52:48;;;;;;;10.80;6.47;;;;;;;;;;5053725;28;20116;-58
2023/10/02 08:55:34;;;;;;;9.25;6.78;;;;;;;;;;5053938;28;20025;-58
2023/10/02 09:01:06;;;;;;;11.48;5.95;;;;;;;;;;5053965;28;20055;-58
2023/10/02 09:03:41;;;;;;;8.57;6.47;;;;;;;;;;5054350;28;20036;-58
2023/10/02 09:11:39;;;;;;;10.85;7.63;;;;;;;;;;5053581;28;20040;-58
2023/10/02 09:14:16;;;;;;;14.25;7.38;;;;;;;;;;5053970;28;20025;-58
2023/10/02 09:16:45;;;;;;;9.90;6.80;;;;;;;;;;5053951;28;20483;-58
2023/10/02 09:19:28;;;;;;;12.43;7.13;;;;;;;;;;5053360;28;20035;-58
2023/10/02 09:22:07;;;;;;;9.35;6.88;;;;;;;;;;5056976;28;20493;-58
2023/10/02 09:24:36;;;;;;;10.45;6.25;;;;;;;;;;5058021;28;20163;-58
2023/10/02 09:27:25;;;;;;;10.93;6.80;;;;;;;;;;5057387;28;20036;-58
2023/10/02 09:32:49;;;;;;;8.13;5.78;;;;;;;;;;5057702;28;20079;-58
2023/10/02 09:35:32;;;;;;;10.70;6.75;;;;;;;;;;5057196;28;20045;-58
2023/10/02 09:38:06;;;;;;;10.60;6.47;;;;;;;;;;5057795;28;20028;-58
2023/10/02 09:43:19;;;;;;;8.27;6.45;;;;;;;;;;5057517;28;20043;-58
2023/10/02 09:45:47;;;;;;;10.55;6.47;;;;;;;;;;5057127;28;20078;-58
2023/10/02 09:51:06;;;;;;;7.93;5.95;;;;;;;;;;5057364;28;20072;-58
2023/10/02 09:53:36;;;;;;;10.70;5.80;;;;;;;;;;5057827;28;20108;-58
2023/10/02 09:56:18;;;;;;;11.37;6.77;;;;;;;;;;5056764;28;20033;-58
2023/10/02 09:59:12;;;;;;;8.77;5.55;;;;;;;;;;5057106;28;20263;-59
2023/10/02 10:02:07;;;;;;;9.02;6.20;;;;;;;;;;5056723;28;20029;-58
2023/10/02 10:05:00;;;;;;;9.98;5.65;;;;;;;;;;5057267;28;20029;-58
2023/10/02 10:07:46;;;;;;;11.68;6.30;;;;;;;;;;5057066;28;20036;-58
2023/10/02 10:10:47;;;;;;;12.82;7.50;;;;;;;;;;5057472;28;20036;-59
2023/10/02 10:13:26;;;;;;;8.80;5.72;;;;;;;;;;5057043;28;20021;-58
2023/10/02 10:16:10;;;;;;;12.40;7.13;;;;;;;;;;5056552;28;20112;-58
2023/10/02 10:21:56;;;;;;;12.60;7.15;;;;;;;;;;5056336;28;20028;-59
2023/10/02 10:24:31;;;;;;;11.82;6.78;;;;;;;;;;5056638;28;20029;-58
2023/10/02 10:26:57;;;;;;;10.20;7.25;;;;;;;;;;5056029;28;20574;-59
2023/10/02 10:29:42;;;;;;;11.63;7.22;;;;;;;;;;5056417;28;20374;-58
2023/10/02 10:32:17;;;;;;;12.35;6.68;;;;;;;;;;5056009;28;20079;-59
2023/10/02 10:35:17;;;;;;;10.68;6.35;;;;;;;;;;5055927;28;20123;-59
2023/10/02 10:37:46;;;;;;;11.88;7.30;;;;;;;;;;5056195;28;20096;-59
2023/10/02 10:40:47;;;;;;;14.40;8.90;;;;;;;;;;5056851;28;20410;-59
2023/10/02 10:43:15;;;;;;;13.48;7.25;;;;;;;;;;5054147;28;20033;-59
2023/10/02 10:45:42;;;;;;;16.08;7.57;;;;;;;;;;5055878;28;20094;-59
2023/10/02 10:48:24;;;;;;;10.77;7.70;;;;;;;;;;5055823;28;20070;-59
2023/10/02 10:50:57;;;;;;;11.82;7.85;;;;;;;;;;5056449;28;20029;-58
2023/10/02 10:53:29;;;;;;;14.88;7.72;;;;;;;;;;5056481;28;20390;-59
2023/10/02 10:56:17;;;;;;;11.05;7.28;;;;;;;;;;5056183;28;20052;-58
2023/10/02 10:58:44;;;;;;;13.20;7.97;;;;;;;;;;5056531;28;20025;-58
2023/10/02 11:01:16;;;;;;;12.82;8.10;;;;;;;;;;5056385;28;20017;-59
2023/10/02 11:03:43;;;;;;;15.50;7.38;;;;;;;;;;5056163;28;20025;-59
2023/10/02 11:06:15;;;;;;;13.40;8.68;;;;;;;;;;5055559;28;20079;-59
2023/10/02 11:08:44;;;;;;;12.05;8.05;;;;;;;;;;5055632;28;20033;-59
2023/10/02 11:11:11;;;;;;;11.82;7.85;;;;;;;;;;5056282;28;20057;-59
2023/10/02 11:13:54;;;;;;;8.95;7.55;;;;;;;;;;5055888;28;20021;-59
2023/10/02 11:16:30;;;;;;;9.75;8.25;;;;;;;;;;5055837;28;20028;-59
2023/10/02 11:19:23;;;;;;;13.43;8.52;;;;;;;;;;5055411;28;20109;-59
2023/10/02 11:22:22;;;;;;;11.13;8.57;;;;;;;;;;5055988;28;20035;-59
2023/10/02 11:25:18;;;;;;;15.77;9.02;;;;;;;;;;5055782;28;20029;-59
2023/10/02 11:27:56;;;;;;;14.10;8.18;;;;;;;;;;5055490;28;20021;-59
2023/10/02 11:30:31;;;;;;;19.35;10.23;;;;;;;;;;5055621;28;20083;-59
2023/10/02 11:33:04;;;;;;;18.45;9.80;;;;;;;;;;5055845;28;20021;-59
2023/10/02 11:35:37;;;;;;;16.40;10.30;;;;;;;;;;5055103;28;20048;-59
2023/10/02 11:38:04;;;;;;;16.02;9.75;;;;;;;;;;5055248;28;20151;-59
2023/10/02 11:40:30;;;;;;;18.13;8.88;;;;;;;;;;5055250;28;20379;-59
2023/10/02 11:43:05;;;;;;;13.60;9.48;;;;;;;;;;5054311;28;20021;-59
2023/10/02 11:45:32;;;;;;;18.25;10.43;;;;;;;;;;5055354;28;20032;-59
2023/10/02 11:47:58;;;;;;;15.20;9.50;;;;;;;;;;5055249;28;20029;-59
2023/10/02 11:50:24;;;;;;;16.27;10.38;;;;;;;;;;5055313;28;20025;-59
2023/10/02 11:52:50;;;;;;;16.35;10.55;;;;;;;;;;5054615;28;20021;-59
2023/10/02 11:55:18;;;;;;;14.00;9.70;;;;;;;;;;5054705;28;20025;-59
2023/10/02 11:57:53;;;;;;;15.00;9.02;;;;;;;;;;5054791;28;20417;-59
2023/10/02 12:00:20;;;;;;;17.40;9.13;;;;;;;;;;5055376;28;20017;-59
2023/10/02 12:02:47;;;;;;;17.90;9.43;;;;;;;;;;5054635;28;20471;-59
2023/10/02 12:05:13;;;;;;;15.77;9.93;;;;;;;;;;5054296;28;20021;-59
2023/10/02 12:07:39;;;;;;;14.02;9.52;;;;;;;;;;5053924;28;20078;-59
2023/10/02 12:10:06;;;;;;;14.90;9.35;;;;;;;;;;5054955;28;20068;-59
2023/10/02 12:12:32;;;;;;;17.83;8.85;;;;;;;;;;5054654;28;20029;-59
2023/10/02 12:14:57;;;;;;;17.58;9.88;;;;;;;;;;5054906;28;20070;-59
2023/10/02 12:17:24;;;;;;;13.68;8.85;;;;;;;;;;5054221;28;20028;-59
2023/10/02 12:19:51;;;;;;;19.65;9.82;;;;;;;;;;5054514;28;20029;-59
2023/10/02 12:22:17;;;;;;;14.68;9.95;;;;;;;;;;5054111;28;20028;-59
2023/10/02 12:24:46;;;;;;;21.00;10.18;;;;;;;;;;5054348;28;20025;-59
2023/10/02 12:27:12;;;;;;;14.88;10.13;;;;;;;;;;5054008;28;20044;-59
2023/10/02 12:29:39;;;;;;;18.08;10.43;;;;;;;;;;5054335;28;20112;-59
2023/10/02 12:32:05;;;;;;;19.55;10.55;;;;;;;;;;5053954;28;20026;-59
2023/10/02 12:34:33;;;;;;;18.05;10.00;;;;;;;;;;5053698;28;20524;-59
2023/10/02 12:37:00;;;;;;;20.08;9.57;;;;;;;;;;5053889;28;20103;-59
2023/10/02 12:39:28;;;;;;;17.25;11.07;;;;;;;;;;5054479;28;20146;-59
2023/10/02 12:41:54;;;;;;;16.80;9.68;;;;;;;;;;5054320;28;20048;-59
2023/10/02 12:44:21;;;;;;;13.45;9.48;;;;;;;;;;5054260;28;20025;-59
2023/10/02 12:46:50;;;;;;;18.80;11.75;;;;;;;;;;5053621;28;20021;-59
2023/10/02 12:49:17;;;;;;;15.15;10.27;;;;;;;;;;5054070;28;20082;-59
2023/10/02 12:51:44;;;;;;;17.85;10.90;;;;;;;;;;5053432;28;20025;-59
2023/10/02 12:54:11;;;;;;;19.08;10.88;;;;;;;;;;5053099;28;20028;-59
2023/10/02 12:56:39;;;;;;;14.98;11.15;;;;;;;;;;5053187;28;20028;-59
2023/10/02 12:59:07;;;;;;;19.70;11.93;;;;;;;;;;5053613;28;20039;-59
2023/10/02 13:01:34;;;;;;;18.30;11.77;;;;;;;;;;5054045;28;20040;-59
2023/10/02 13:04:00;;;;;;;15.93;10.32;;;;;;;;;;5053439;28;20056;-59
2023/10/02 13:06:27;;;;;;;15.98;10.48;;;;;;;;;;5053459;28;20021;-59
2023/10/02 13:08:57;;;;;;;18.73;9.90;;;;;;;;;;5053866;28;20025;-59
2023/10/02 13:11:24;;;;;;;14.52;9.32;;;;;;;;;;5053741;28;20075;-59
2023/10/02 13:13:53;;;;;;;17.60;10.63;;;;;;;;;;5053401;28;20025;-59
2023/10/02 13:16:19;;;;;;;18.90;10.35;;;;;;;;;;5053261;28;20021;-59
2023/10/02 13:18:45;;;;;;;19.00;10.75;;;;;;;;;;5053602;28;20032;-59
2023/10/02 13:21:14;;;;;;;17.17;9.63;;;;;;;;;;5054112;28;20013;-59
2023/10/02 13:23:40;;;;;;;18.08;10.55;;;;;;;;;;5053803;28;20032;-59
2023/10/02 13:26:08;;;;;;;15.82;9.38;;;;;;;;;;5052676;28;20079;-59
2023/10/02 13:28:34;;;;;;;16.55;10.77;;;;;;;;;;5053188;28;20401;-59
2023/10/02 13:31:07;;;;;;;19.55;10.57;;;;;;;;;;5053612;28;20367;-59
2023/10/02 13:33:34;;;;;;;19.33;11.45;;;;;;;;;;5053633;28;20021;-59
2023/10/02 13:36:07;;;;;;;17.60;9.93;;;;;;;;;;5052331;28;20418;-59
2023/10/02 13:38:33;;;;;;;19.60;11.38;;;;;;;;;;5053473;28;20040;-59
2023/10/02 13:41:12;;;;;;;20.48;10.85;;;;;;;;;;5053570;28;20029;-59
2023/10/02 13:43:41;;;;;;;16.63;9.07;;;;;;;;;;5052899;28;20031;-59
2023/10/02 13:46:10;;;;;;;20.13;10.07;;;;;;;;;;5053374;28;20083;-59
2023/10/02 13:48:39;;;;;;;16.95;10.30;;;;;;;;;;5052639;28;20116;-59
2023/10/02 13:51:05;;;;;;;16.55;9.80;;;;;;;;;;5052817;28;20491;-59
2023/10/02 13:53:32;;;;;;;17.10;10.75;;;;;;;;;;5052762;28;20032;-59
2023/10/02 13:56:09;;;;;;;14.68;9.70;;;;;;;;;;5052717;28;20028;-59
2023/10/02 13:58:36;;;;;;;20.48;11.05;;;;;;;;;;5053717;28;20095;-59
2023/10/02 14:01:05;;;;;;;13.80;10.45;;;;;;;;;;5053558;28;20111;-58
2023/10/02 14:03:31;;;;;;;14.85;11.15;;;;;;;;;;5053444;28;20067;-59
2023/10/02 14:05:57;;;;;;;13.13;9.30;;;;;;;;;;5053331;28;20083;-59
2023/10/02 14:08:23;;;;;;;16.17;10.73;;;;;;;;;;5056361;28;20459;-59
2023/10/02 14:10:49;;;;;;;13.63;9.70;;;;;;;;;;5057042;28;20063;-59
2023/10/02 14:13:15;;;;;;;20.05;11.77;;;;;;;;;;5056583;28;20379;-59
2023/10/02 14:15:41;;;;;;;16.55;9.23;;;;;;;;;;5057027;28;20021;-59
2023/10/02 14:18:08;;;;;;;20.08;11.35;;;;;;;;;;5056382;28;20025;-59
2023/10/02 14:20:38;;;;;;;15.85;10.32;;;;;;;;;;5056741;28;20017;-59
2023/10/02 14:23:05;;;;;;;15.75;10.40;;;;;;;;;;5056797;28;20063;-59
2023/10/02 14:25:32;;;;;;;19.73;11.48;;;;;;;;;;5056324;28;20029;-59
2023/10/02 14:27:58;;;;;;;14.40;9.98;;;;;;;;;;5056784;28;20029;-59
2023/10/02 14:30:24;;;;;;;14.20;9.35;;;;;;;;;;5056468;28;20025;-59
2023/10/02 14:32:50;;;;;;;15.80;10.52;;;;;;;;;;5056268;28;20446;-59
2023/10/02 14:35:17;;;;;;;17.10;11.18;;;;;;;;;;5056409;28;20051;-59
2023/10/02 14:37:43;;;;;;;16.88;10.48;;;;;;;;;;5056032;28;20056;-59
2023/10/02 14:40:19;;;;;;;15.98;10.85;;;;;;;;;;5056610;28;20029;-59
2023/10/02 14:42:48;;;;;;;16.95;11.30;;;;;;;;;;5056519;28;20021;-59
2023/10/02 14:45:14;;;;;;;17.45;10.88;;;;;;;;;;5055864;28;20025;-59
2023/10/02 14:47:42;;;;;;;15.10;10.40;;;;;;;;;;5056006;28;20032;-59
2023/10/02 14:50:11;;;;;;;14.20;9.77;;;;;;;;;;5056756;28;20104;-59
2023/10/02 14:52:38;;;;;;;18.42;10.52;;;;;;;;;;5056022;28;20078;-59
2023/10/02 14:55:05;;;;;;;21.08;10.55;;;;;;;;;;5056457;28;20333;-59
2023/10/02 14:57:31;;;;;;;12.40;9.65;;;;;;;;;;5055746;28;20032;-59
2023/10/02 14:59:57;;;;;;;19.02;10.48;;;;;;;;;;5055943;28;20028;-60
2023/10/02 15:02:24;;;;;;;21.63;12.27;;;;;;;;;;5056157;28;20017;-59
2023/10/02 15:04:50;;;;;;;16.67;10.70;;;;;;;;;;5055605;28;20107;-60
2023/10/02 15:07:16;;;;;;;15.52;9.77;;;;;;;;;;5055544;28;20036;-60
2023/10/02 15:09:43;;;;;;;21.52;10.95;;;;;;;;;;5055780;28;20033;-59
2023/10/02 15:12:09;;;;;;;16.48;11.20;;;;;;;;;;5055471;28;20035;-60
2023/10/02 15:14:35;;;;;;;18.23;11.15;;;;;;;;;;5055336;28;20020;-59
2023/10/02 15:17:02;;;;;;;16.80;11.07;;;;;;;;;;5055224;28;20025;-60
2023/10/02 15:19:28;;;;;;;18.60;11.77;;;;;;;;;;5055315;28;20032;-60
2023/10/02 15:21:54;;;;;;;15.00;10.10;;;;;;;;;;5055467;28;20467;-59
2023/10/02 15:24:20;;;;;;;20.02;12.55;;;;;;;;;;5055886;28;20023;-59
2023/10/02 15:26:46;;;;;;;22.52;12.85;;;;;;;;;;5055261;28;20459;-59
2023/10/02 15:29:12;;;;;;;19.95;12.60;;;;;;;;;;5055427;28;20043;-60
2023/10/02 15:31:38;;;;;;;24.20;13.50;;;;;;;;;;5055167;28;20029;-59
2023/10/02 15:34:04;;;;;;;23.38;12.50;;;;;;;;;;5055012;28;20048;-59
2023/10/02 15:36:30;;;;;;;20.30;12.27;;;;;;;;;;5055076;28;20017;-59
2023/10/02 15:39:02;;;;;;;20.85;11.63;;;;;;;;;;5055078;28;20536;-59